sensor_id;sensor_type;location;lat;lon;timestamp;P1;durP1;ratioP1;P2;durP2;ratioP2
32810;SDS011;65470;47.324;8.548;2023-05-10T00:01:56;5.57;;;0.57;;
32810;SDS011;65470;47.324;8.548;2023-05-10T00:04:21;3.47;;;0.45;;
32810;SDS011;65470;47.324;8.548;2023-05-10T00:06:47;2.92;;;0.50;;
32810;SDS011;65470;47.324;8.548;2023-05-10T00:09:13;0.50;;;0.50;;
32810;SDS011;65470;47.324;8.548;2023-05-10T00:11:38;0.50;;;0.50;;
32810;SDS011;65470;47.324;8.548;2023-05-10T00:14:04;0.40;;;0.40;;
32810;SDS011;65470;47.324;8.548;2023-05-10T00:16:30;0.70;;;0.70;;
32810;SDS011;65470;47.324;8.548;2023-05-10T00:18:55;0.75;;;0.75;;
32810;SDS011;65470;47.324;8.548;2023-05-10T00:21:21;0.63;;;0.50;;
32810;SDS011;65470;47.324;8.548;2023-05-10T00:23:47;2.92;;;0.70;;
32810;SDS011;65470;47.324;8.548;2023-05-10T00:26:12;1.38;;;0.50;;
32810;SDS011;65470;47.324;8.548;2023-05-10T00:28:38;2.05;;;0.90;;
32810;SDS011;65470;47.324;8.548;2023-05-10T00:31:03;3.92;;;0.80;;
32810;SDS011;65470;47.324;8.548;2023-05-10T00:33:29;1.02;;;0.60;;
32810;SDS011;65470;47.324;8.548;2023-05-10T00:35:55;1.48;;;0.73;;
32810;SDS011;65470;47.324;8.548;2023-05-10T00:38:22;1.75;;;0.63;;
32810;SDS011;65470;47.324;8.548;2023-05-10T00:40:47;2.72;;;0.60;;
32810;SDS011;65470;47.324;8.548;2023-05-10T00:43:13;0.50;;;0.50;;
32810;SDS011;65470;47.324;8.548;2023-05-10T00:45:39;2.45;;;0.60;;
32810;SDS011;65470;47.324;8.548;2023-05-10T00:48:06;0.63;;;0.50;;
32810;SDS011;65470;47.324;8.548;2023-05-10T00:50:32;0.70;;;0.65;;
32810;SDS011;65470;47.324;8.548;2023-05-10T00:52:58;1.20;;;0.70;;
32810;SDS011;65470;47.324;8.548;2023-05-10T00:55:25;0.60;;;0.60;;
32810;SDS011;65470;47.324;8.548;2023-05-10T00:57:51;2.85;;;0.60;;
32810;SDS011;65470;47.324;8.548;2023-05-10T01:00:18;1.02;;;0.65;;
32810;SDS011;65470;47.324;8.548;2023-05-10T01:02:47;0.68;;;0.50;;
32810;SDS011;65470;47.324;8.548;2023-05-10T01:05:13;0.70;;;0.70;;
32810;SDS011;65470;47.324;8.548;2023-05-10T01:07:38;0.70;;;0.60;;
32810;SDS011;65470;47.324;8.548;2023-05-10T01:10:05;0.55;;;0.50;;
32810;SDS011;65470;47.324;8.548;2023-05-10T01:12:32;1.58;;;0.73;;
32810;SDS011;65470;47.324;8.548;2023-05-10T01:15:00;0.73;;;0.50;;
32810;SDS011;65470;47.324;8.548;2023-05-10T01:17:26;2.65;;;0.63;;
32810;SDS011;65470;47.324;8.548;2023-05-10T01:19:52;1.80;;;0.50;;
32810;SDS011;65470;47.324;8.548;2023-05-10T01:25:19;0.60;;;0.60;;
32810;SDS011;65470;47.324;8.548;2023-05-10T01:39:16;0.82;;;0.68;;
32810;SDS011;65470;47.324;8.548;2023-05-10T01:47:33;2.00;;;0.68;;
32810;SDS011;65470;47.324;8.548;2023-05-10T01:50:04;3.60;;;0.88;;
32810;SDS011;65470;47.324;8.548;2023-05-10T01:52:33;2.72;;;0.60;;
32810;SDS011;65470;47.324;8.548;2023-05-10T01:55:06;2.60;;;0.77;;
32810;SDS011;65470;47.324;8.548;2023-05-10T01:57:36;1.63;;;0.80;;
32810;SDS011;65470;47.324;8.548;2023-05-10T02:03:31;1.33;;;0.82;;
32810;SDS011;65470;47.324;8.548;2023-05-10T02:06:18;0.70;;;0.60;;
32810;SDS011;65470;47.324;8.548;2023-05-10T02:08:47;2.03;;;0.80;;
32810;SDS011;65470;47.324;8.548;2023-05-10T02:11:14;1.88;;;0.65;;
32810;SDS011;65470;47.324;8.548;2023-05-10T02:13:41;4.63;;;0.70;;
32810;SDS011;65470;47.324;8.548;2023-05-10T02:16:08;1.85;;;0.80;;
32810;SDS011;65470;47.324;8.548;2023-05-10T02:18:35;0.68;;;0.57;;
32810;SDS011;65470;47.324;8.548;2023-05-10T02:21:02;1.80;;;0.85;;
32810;SDS011;65470;47.324;8.548;2023-05-10T02:23:28;1.00;;;0.70;;
32810;SDS011;65470;47.324;8.548;2023-05-10T02:25:55;0.60;;;0.60;;
32810;SDS011;65470;47.324;8.548;2023-05-10T02:28:23;0.70;;;0.70;;
32810;SDS011;65470;47.324;8.548;2023-05-10T02:30:51;0.82;;;0.75;;
32810;SDS011;65470;47.324;8.548;2023-05-10T02:33:17;0.75;;;0.60;;
32810;SDS011;65470;47.324;8.548;2023-05-10T02:35:45;1.38;;;0.88;;
32810;SDS011;65470;47.324;8.548;2023-05-10T02:38:12;0.75;;;0.70;;
32810;SDS011;65470;47.324;8.548;2023-05-10T02:40:40;0.68;;;0.50;;
32810;SDS011;65470;47.324;8.548;2023-05-10T02:43:08;0.88;;;0.70;;
32810;SDS011;65470;47.324;8.548;2023-05-10T02:45:38;0.50;;;0.50;;
32810;SDS011;65470;47.324;8.548;2023-05-10T02:48:05;0.93;;;0.80;;
32810;SDS011;65470;47.324;8.548;2023-05-10T02:50:32;4.18;;;1.10;;
32810;SDS011;65470;47.324;8.548;2023-05-10T02:52:59;1.65;;;0.90;;
32810;SDS011;65470;47.324;8.548;2023-05-10T02:55:32;0.75;;;0.75;;
32810;SDS011;65470;47.324;8.548;2023-05-10T02:58:02;1.23;;;0.80;;
32810;SDS011;65470;47.324;8.548;2023-05-10T03:00:28;2.35;;;0.90;;
32810;SDS011;65470;47.324;8.548;2023-05-10T03:02:54;1.23;;;0.90;;
32810;SDS011;65470;47.324;8.548;2023-05-10T03:05:20;0.80;;;0.80;;
32810;SDS011;65470;47.324;8.548;2023-05-10T03:07:46;2.75;;;0.93;;
32810;SDS011;65470;47.324;8.548;2023-05-10T03:10:12;2.00;;;0.98;;
32810;SDS011;65470;47.324;8.548;2023-05-10T03:18:12;1.40;;;1.30;;
32810;SDS011;65470;47.324;8.548;2023-05-10T03:20:50;1.35;;;0.90;;
32810;SDS011;65470;47.324;8.548;2023-05-10T03:23:37;2.17;;;0.90;;
32810;SDS011;65470;47.324;8.548;2023-05-10T03:26:05;1.10;;;0.90;;
32810;SDS011;65470;47.324;8.548;2023-05-10T03:28:32;7.97;;;1.85;;
32810;SDS011;65470;47.324;8.548;2023-05-10T03:30:59;1.20;;;0.90;;
32810;SDS011;65470;47.324;8.548;2023-05-10T03:33:25;1.02;;;0.93;;
32810;SDS011;65470;47.324;8.548;2023-05-10T03:35:51;2.42;;;0.80;;
32810;SDS011;65470;47.324;8.548;2023-05-10T03:38:17;2.45;;;0.88;;
32810;SDS011;65470;47.324;8.548;2023-05-10T03:40:42;1.55;;;0.80;;
32810;SDS011;65470;47.324;8.548;2023-05-10T03:43:08;0.80;;;0.80;;
32810;SDS011;65470;47.324;8.548;2023-05-10T03:45:33;1.10;;;1.00;;
32810;SDS011;65470;47.324;8.548;2023-05-10T03:47:59;1.25;;;1.00;;
32810;SDS011;65470;47.324;8.548;2023-05-10T03:50:25;2.58;;;1.42;;
32810;SDS011;65470;47.324;8.548;2023-05-10T03:52:51;2.05;;;0.90;;
32810;SDS011;65470;47.324;8.548;2023-05-10T03:55:17;3.88;;;0.80;;
32810;SDS011;65470;47.324;8.548;2023-05-10T03:57:42;1.60;;;0.90;;
32810;SDS011;65470;47.324;8.548;2023-05-10T04:00:08;1.98;;;0.68;;
32810;SDS011;65470;47.324;8.548;2023-05-10T04:02:34;2.55;;;1.05;;
32810;SDS011;65470;47.324;8.548;2023-05-10T04:05:00;3.08;;;1.15;;
32810;SDS011;65470;47.324;8.548;2023-05-10T04:07:26;1.10;;;1.00;;
32810;SDS011;65470;47.324;8.548;2023-05-10T04:09:52;1.60;;;1.00;;
32810;SDS011;65470;47.324;8.548;2023-05-10T04:12:17;2.97;;;1.27;;
32810;SDS011;65470;47.324;8.548;2023-05-10T04:14:43;3.55;;;0.93;;
32810;SDS011;65470;47.324;8.548;2023-05-10T04:17:08;2.25;;;1.20;;
32810;SDS011;65470;47.324;8.548;2023-05-10T04:19:34;1.58;;;0.85;;
32810;SDS011;65470;47.324;8.548;2023-05-10T04:21:59;3.13;;;1.05;;
32810;SDS011;65470;47.324;8.548;2023-05-10T04:24:26;1.42;;;1.33;;
32810;SDS011;65470;47.324;8.548;2023-05-10T04:26:53;1.10;;;1.00;;
32810;SDS011;65470;47.324;8.548;2023-05-10T04:29:19;1.25;;;1.00;;
32810;SDS011;65470;47.324;8.548;2023-05-10T04:31:45;1.13;;;1.00;;
32810;SDS011;65470;47.324;8.548;2023-05-10T04:34:10;0.98;;;0.90;;
32810;SDS011;65470;47.324;8.548;2023-05-10T04:36:36;0.73;;;0.70;;
32810;SDS011;65470;47.324;8.548;2023-05-10T04:39:02;3.20;;;0.90;;
32810;SDS011;65470;47.324;8.548;2023-05-10T04:41:28;5.78;;;0.73;;
32810;SDS011;65470;47.324;8.548;2023-05-10T04:43:54;0.45;;;0.45;;
32810;SDS011;65470;47.324;8.548;2023-05-10T04:46:20;1.95;;;0.80;;
32810;SDS011;65470;47.324;8.548;2023-05-10T04:48:46;14.65;;;0.90;;
32810;SDS011;65470;47.324;8.548;2023-05-10T04:51:11;2.00;;;0.75;;
32810;SDS011;65470;47.324;8.548;2023-05-10T04:53:37;0.82;;;0.70;;
32810;SDS011;65470;47.324;8.548;2023-05-10T04:56:03;1.38;;;0.80;;
32810;SDS011;65470;47.324;8.548;2023-05-10T04:58:29;2.63;;;0.60;;
32810;SDS011;65470;47.324;8.548;2023-05-10T05:00:54;1.83;;;0.70;;
32810;SDS011;65470;47.324;8.548;2023-05-10T05:03:20;2.80;;;0.88;;
32810;SDS011;65470;47.324;8.548;2023-05-10T05:05:45;1.35;;;0.70;;
32810;SDS011;65470;47.324;8.548;2023-05-10T05:08:11;2.45;;;1.00;;
32810;SDS011;65470;47.324;8.548;2023-05-10T05:10:37;3.15;;;1.13;;
32810;SDS011;65470;47.324;8.548;2023-05-10T05:13:03;2.00;;;0.98;;
32810;SDS011;65470;47.324;8.548;2023-05-10T05:15:28;3.42;;;0.90;;
32810;SDS011;65470;47.324;8.548;2023-05-10T05:17:55;3.50;;;1.10;;
32810;SDS011;65470;47.324;8.548;2023-05-10T05:20:21;2.58;;;1.00;;
32810;SDS011;65470;47.324;8.548;2023-05-10T05:22:47;2.45;;;1.05;;
32810;SDS011;65470;47.324;8.548;2023-05-10T05:25:12;1.80;;;1.10;;
32810;SDS011;65470;47.324;8.548;2023-05-10T05:27:38;1.58;;;1.10;;
32810;SDS011;65470;47.324;8.548;2023-05-10T05:30:04;1.88;;;1.10;;
32810;SDS011;65470;47.324;8.548;2023-05-10T05:32:30;3.63;;;1.42;;
32810;SDS011;65470;47.324;8.548;2023-05-10T05:34:56;1.52;;;1.17;;
32810;SDS011;65470;47.324;8.548;2023-05-10T05:37:21;4.35;;;1.20;;
32810;SDS011;65470;47.324;8.548;2023-05-10T05:39:47;3.53;;;1.50;;
32810;SDS011;65470;47.324;8.548;2023-05-10T05:42:13;1.20;;;1.10;;
32810;SDS011;65470;47.324;8.548;2023-05-10T05:44:41;2.00;;;1.40;;
32810;SDS011;65470;47.324;8.548;2023-05-10T05:47:07;1.25;;;1.15;;
32810;SDS011;65470;47.324;8.548;2023-05-10T05:49:32;1.83;;;1.20;;
32810;SDS011;65470;47.324;8.548;2023-05-10T05:51:59;2.08;;;1.27;;
32810;SDS011;65470;47.324;8.548;2023-05-10T05:54:25;1.05;;;0.90;;
32810;SDS011;65470;47.324;8.548;2023-05-10T05:56:53;3.35;;;1.13;;
32810;SDS011;65470;47.324;8.548;2023-05-10T05:59:22;1.02;;;1.00;;
32810;SDS011;65470;47.324;8.548;2023-05-10T06:01:48;3.47;;;1.30;;
32810;SDS011;65470;47.324;8.548;2023-05-10T06:04:14;1.95;;;0.80;;
32810;SDS011;65470;47.324;8.548;2023-05-10T06:06:40;1.42;;;1.10;;
32810;SDS011;65470;47.324;8.548;2023-05-10T06:09:07;1.13;;;1.02;;
32810;SDS011;65470;47.324;8.548;2023-05-10T06:11:33;3.63;;;1.35;;
32810;SDS011;65470;47.324;8.548;2023-05-10T06:13:59;2.85;;;0.85;;
32810;SDS011;65470;47.324;8.548;2023-05-10T06:16:25;1.13;;;1.00;;
32810;SDS011;65470;47.324;8.548;2023-05-10T06:18:51;1.10;;;0.95;;
32810;SDS011;65470;47.324;8.548;2023-05-10T06:21:16;4.10;;;1.10;;
32810;SDS011;65470;47.324;8.548;2023-05-10T06:23:42;1.95;;;0.90;;
32810;SDS011;65470;47.324;8.548;2023-05-10T06:26:08;6.43;;;1.25;;
32810;SDS011;65470;47.324;8.548;2023-05-10T06:28:34;3.40;;;1.20;;
32810;SDS011;65470;47.324;8.548;2023-05-10T06:31:02;2.60;;;0.90;;
32810;SDS011;65470;47.324;8.548;2023-05-10T06:33:28;1.25;;;0.85;;
32810;SDS011;65470;47.324;8.548;2023-05-10T06:35:54;8.25;;;1.88;;
32810;SDS011;65470;47.324;8.548;2023-05-10T06:38:20;1.13;;;1.02;;
32810;SDS011;65470;47.324;8.548;2023-05-10T06:40:45;3.10;;;1.10;;
32810;SDS011;65470;47.324;8.548;2023-05-10T06:43:11;3.78;;;1.50;;
32810;SDS011;65470;47.324;8.548;2023-05-10T06:45:36;4.20;;;1.55;;
32810;SDS011;65470;47.324;8.548;2023-05-10T06:48:02;1.08;;;0.98;;
32810;SDS011;65470;47.324;8.548;2023-05-10T06:50:28;1.67;;;1.05;;
32810;SDS011;65470;47.324;8.548;2023-05-10T06:52:53;2.70;;;1.20;;
32810;SDS011;65470;47.324;8.548;2023-05-10T06:55:20;1.60;;;1.20;;
32810;SDS011;65470;47.324;8.548;2023-05-10T06:57:46;2.47;;;2.13;;
32810;SDS011;65470;47.324;8.548;2023-05-10T07:00:12;3.88;;;1.92;;
32810;SDS011;65470;47.324;8.548;2023-05-10T07:02:38;2.38;;;1.85;;
32810;SDS011;65470;47.324;8.548;2023-05-10T07:05:04;2.22;;;1.75;;
32810;SDS011;65470;47.324;8.548;2023-05-10T07:07:30;2.10;;;1.55;;
32810;SDS011;65470;47.324;8.548;2023-05-10T07:09:56;3.17;;;1.20;;
32810;SDS011;65470;47.324;8.548;2023-05-10T07:12:22;2.83;;;0.95;;
32810;SDS011;65470;47.324;8.548;2023-05-10T07:14:48;1.77;;;1.20;;
32810;SDS011;65470;47.324;8.548;2023-05-10T07:17:14;1.77;;;1.00;;
32810;SDS011;65470;47.324;8.548;2023-05-10T07:19:40;1.83;;;1.23;;
32810;SDS011;65470;47.324;8.548;2023-05-10T07:22:05;1.85;;;1.30;;
32810;SDS011;65470;47.324;8.548;2023-05-10T07:24:32;1.63;;;1.15;;
32810;SDS011;65470;47.324;8.548;2023-05-10T07:26:58;1.75;;;1.27;;
32810;SDS011;65470;47.324;8.548;2023-05-10T07:29:23;2.95;;;1.20;;
32810;SDS011;65470;47.324;8.548;2023-05-10T07:31:49;4.40;;;1.42;;
32810;SDS011;65470;47.324;8.548;2023-05-10T07:34:15;2.40;;;0.80;;
32810;SDS011;65470;47.324;8.548;2023-05-10T07:36:40;3.67;;;1.23;;
32810;SDS011;65470;47.324;8.548;2023-05-10T07:39:06;1.65;;;1.00;;
32810;SDS011;65470;47.324;8.548;2023-05-10T07:41:32;3.20;;;1.15;;
32810;SDS011;65470;47.324;8.548;2023-05-10T07:43:58;2.63;;;1.40;;
32810;SDS011;65470;47.324;8.548;2023-05-10T07:46:23;2.58;;;1.42;;
32810;SDS011;65470;47.324;8.548;2023-05-10T07:48:49;2.70;;;1.48;;
32810;SDS011;65470;47.324;8.548;2023-05-10T07:51:15;1.55;;;1.20;;
32810;SDS011;65470;47.324;8.548;2023-05-10T07:53:40;4.85;;;1.67;;
32810;SDS011;65470;47.324;8.548;2023-05-10T07:56:25;3.55;;;1.20;;
32810;SDS011;65470;47.324;8.548;2023-05-10T07:58:54;3.05;;;1.45;;
32810;SDS011;65470;47.324;8.548;2023-05-10T08:01:21;3.13;;;1.35;;
32810;SDS011;65470;47.324;8.548;2023-05-10T08:03:47;2.92;;;1.40;;
32810;SDS011;65470;47.324;8.548;2023-05-10T08:06:14;4.63;;;1.52;;
32810;SDS011;65470;47.324;8.548;2023-05-10T08:08:40;5.55;;;1.90;;
32810;SDS011;65470;47.324;8.548;2023-05-10T08:11:06;3.88;;;1.92;;
32810;SDS011;65470;47.324;8.548;2023-05-10T08:13:32;3.13;;;1.17;;
32810;SDS011;65470;47.324;8.548;2023-05-10T08:15:58;4.18;;;1.70;;
32810;SDS011;65470;47.324;8.548;2023-05-10T08:18:23;3.35;;;1.45;;
32810;SDS011;65470;47.324;8.548;2023-05-10T08:20:49;4.25;;;1.67;;
32810;SDS011;65470;47.324;8.548;2023-05-10T08:23:15;3.13;;;1.55;;
32810;SDS011;65470;47.324;8.548;2023-05-10T08:25:40;1.98;;;1.50;;
32810;SDS011;65470;47.324;8.548;2023-05-10T08:28:06;3.80;;;1.40;;
32810;SDS011;65470;47.324;8.548;2023-05-10T08:30:32;4.13;;;1.60;;
32810;SDS011;65470;47.324;8.548;2023-05-10T08:32:57;3.47;;;2.00;;
32810;SDS011;65470;47.324;8.548;2023-05-10T08:35:23;4.82;;;1.80;;
32810;SDS011;65470;47.324;8.548;2023-05-10T08:37:49;3.58;;;1.52;;
32810;SDS011;65470;47.324;8.548;2023-05-10T08:40:15;2.22;;;1.30;;
32810;SDS011;65470;47.324;8.548;2023-05-10T08:42:46;8.30;;;1.90;;
32810;SDS011;65470;47.324;8.548;2023-05-10T08:45:19;3.42;;;1.60;;
32810;SDS011;65470;47.324;8.548;2023-05-10T08:47:47;5.25;;;1.35;;
32810;SDS011;65470;47.324;8.548;2023-05-10T08:50:14;4.78;;;1.63;;
32810;SDS011;65470;47.324;8.548;2023-05-10T08:52:41;5.88;;;1.80;;
32810;SDS011;65470;47.324;8.548;2023-05-10T08:55:07;4.22;;;1.55;;
32810;SDS011;65470;47.324;8.548;2023-05-10T08:57:32;4.00;;;1.40;;
32810;SDS011;65470;47.324;8.548;2023-05-10T08:59:59;4.45;;;1.70;;
32810;SDS011;65470;47.324;8.548;2023-05-10T09:02:26;3.70;;;1.42;;
32810;SDS011;65470;47.324;8.548;2023-05-10T09:04:52;3.15;;;1.40;;
32810;SDS011;65470;47.324;8.548;2023-05-10T09:07:17;3.47;;;1.20;;
32810;SDS011;65470;47.324;8.548;2023-05-10T09:09:44;1.92;;;1.20;;
32810;SDS011;65470;47.324;8.548;2023-05-10T09:12:11;2.30;;;1.50;;
32810;SDS011;65470;47.324;8.548;2023-05-10T09:14:40;3.80;;;1.83;;
32810;SDS011;65470;47.324;8.548;2023-05-10T09:17:07;5.15;;;1.83;;
32810;SDS011;65470;47.324;8.548;2023-05-10T09:19:32;4.10;;;1.88;;
32810;SDS011;65470;47.324;8.548;2023-05-10T09:21:58;3.10;;;1.73;;
32810;SDS011;65470;47.324;8.548;2023-05-10T09:24:25;3.75;;;1.42;;
32810;SDS011;65470;47.324;8.548;2023-05-10T09:26:52;5.00;;;1.30;;
32810;SDS011;65470;47.324;8.548;2023-05-10T09:29:17;3.17;;;1.33;;
32810;SDS011;65470;47.324;8.548;2023-05-10T09:31:52;5.72;;;1.67;;
32810;SDS011;65470;47.324;8.548;2023-05-10T09:34:28;3.65;;;1.55;;
32810;SDS011;65470;47.324;8.548;2023-05-10T09:36:58;2.53;;;1.60;;
32810;SDS011;65470;47.324;8.548;2023-05-10T09:42:08;2.33;;;1.50;;
32810;SDS011;65470;47.324;8.548;2023-05-10T09:44:34;5.45;;;2.33;;
32810;SDS011;65470;47.324;8.548;2023-05-10T09:47:01;5.40;;;2.03;;
32810;SDS011;65470;47.324;8.548;2023-05-10T09:49:27;3.28;;;1.60;;
32810;SDS011;65470;47.324;8.548;2023-05-10T09:52:03;2.30;;;1.45;;
32810;SDS011;65470;47.324;8.548;2023-05-10T09:54:30;3.03;;;2.05;;
32810;SDS011;65470;47.324;8.548;2023-05-10T09:56:56;7.22;;;2.00;;
32810;SDS011;65470;47.324;8.548;2023-05-10T09:59:22;6.32;;;2.15;;
32810;SDS011;65470;47.324;8.548;2023-05-10T10:01:51;3.20;;;1.90;;
32810;SDS011;65470;47.324;8.548;2023-05-10T10:04:17;5.53;;;1.50;;
32810;SDS011;65470;47.324;8.548;2023-05-10T10:06:44;3.55;;;1.95;;
32810;SDS011;65470;47.324;8.548;2023-05-10T10:09:10;3.72;;;1.83;;
32810;SDS011;65470;47.324;8.548;2023-05-10T10:11:36;2.50;;;1.50;;
32810;SDS011;65470;47.324;8.548;2023-05-10T10:14:03;3.33;;;1.50;;
32810;SDS011;65470;47.324;8.548;2023-05-10T10:16:29;2.97;;;1.70;;
32810;SDS011;65470;47.324;8.548;2023-05-10T10:18:56;3.47;;;1.85;;
32810;SDS011;65470;47.324;8.548;2023-05-10T10:21:22;4.43;;;1.70;;
32810;SDS011;65470;47.324;8.548;2023-05-10T10:23:48;7.45;;;1.90;;
32810;SDS011;65470;47.324;8.548;2023-05-10T10:26:15;2.95;;;1.60;;
32810;SDS011;65470;47.324;8.548;2023-05-10T10:28:56;2.72;;;1.60;;
32810;SDS011;65470;47.324;8.548;2023-05-10T10:34:10;2.50;;;1.70;;
32810;SDS011;65470;47.324;8.548;2023-05-10T10:36:56;5.88;;;1.80;;
32810;SDS011;65470;47.324;8.548;2023-05-10T10:39:26;4.72;;;1.80;;
32810;SDS011;65470;47.324;8.548;2023-05-10T10:41:55;6.13;;;1.88;;
32810;SDS011;65470;47.324;8.548;2023-05-10T10:52:27;7.25;;;2.42;;
32810;SDS011;65470;47.324;8.548;2023-05-10T10:57:42;5.63;;;1.73;;
32810;SDS011;65470;47.324;8.548;2023-05-10T11:03:11;4.15;;;1.85;;
32810;SDS011;65470;47.324;8.548;2023-05-10T11:05:49;4.95;;;2.08;;
32810;SDS011;65470;47.324;8.548;2023-05-10T11:08:41;4.72;;;1.88;;
32810;SDS011;65470;47.324;8.548;2023-05-10T11:11:09;4.28;;;1.40;;
32810;SDS011;65470;47.324;8.548;2023-05-10T11:16:20;2.83;;;1.45;;
32810;SDS011;65470;47.324;8.548;2023-05-10T11:18:51;6.72;;;1.63;;
32810;SDS011;65470;47.324;8.548;2023-05-10T11:21:26;3.25;;;1.75;;
32810;SDS011;65470;47.324;8.548;2023-05-10T11:23:53;5.43;;;1.92;;
32810;SDS011;65470;47.324;8.548;2023-05-10T11:26:34;6.50;;;1.80;;
32810;SDS011;65470;47.324;8.548;2023-05-10T11:29:00;2.60;;;1.50;;
32810;SDS011;65470;47.324;8.548;2023-05-10T11:31:27;3.00;;;1.70;;
32810;SDS011;65470;47.324;8.548;2023-05-10T11:33:54;3.60;;;2.10;;
32810;SDS011;65470;47.324;8.548;2023-05-10T11:36:21;6.20;;;2.15;;
32810;SDS011;65470;47.324;8.548;2023-05-10T11:39:13;4.75;;;2.05;;
32810;SDS011;65470;47.324;8.548;2023-05-10T11:41:39;7.22;;;2.88;;
32810;SDS011;65470;47.324;8.548;2023-05-10T11:44:05;7.43;;;3.88;;
32810;SDS011;65470;47.324;8.548;2023-05-10T11:46:30;4.70;;;2.75;;
32810;SDS011;65470;47.324;8.548;2023-05-10T11:48:59;6.57;;;3.42;;
32810;SDS011;65470;47.324;8.548;2023-05-10T11:51:26;5.97;;;3.47;;
32810;SDS011;65470;47.324;8.548;2023-05-10T11:53:53;7.60;;;2.65;;
32810;SDS011;65470;47.324;8.548;2023-05-10T11:56:20;9.68;;;2.90;;
32810;SDS011;65470;47.324;8.548;2023-05-10T11:58:51;7.88;;;2.42;;
32810;SDS011;65470;47.324;8.548;2023-05-10T12:01:21;8.52;;;2.00;;
32810;SDS011;65470;47.324;8.548;2023-05-10T12:03:48;6.20;;;1.73;;
32810;SDS011;65470;47.324;8.548;2023-05-10T12:06:15;2.78;;;2.13;;
32810;SDS011;65470;47.324;8.548;2023-05-10T12:08:45;5.60;;;1.60;;
32810;SDS011;65470;47.324;8.548;2023-05-10T12:11:12;6.63;;;1.67;;
32810;SDS011;65470;47.324;8.548;2023-05-10T12:13:41;7.60;;;2.70;;
32810;SDS011;65470;47.324;8.548;2023-05-10T12:18:43;13.75;;;2.20;;
32810;SDS011;65470;47.324;8.548;2023-05-10T12:21:12;6.88;;;2.83;;
32810;SDS011;65470;47.324;8.548;2023-05-10T12:23:38;4.35;;;2.78;;
32810;SDS011;65470;47.324;8.548;2023-05-10T12:26:04;8.75;;;3.75;;
32810;SDS011;65470;47.324;8.548;2023-05-10T12:28:31;4.05;;;2.50;;
32810;SDS011;65470;47.324;8.548;2023-05-10T12:30:58;5.43;;;3.00;;
32810;SDS011;65470;47.324;8.548;2023-05-10T12:33:24;2.75;;;2.05;;
32810;SDS011;65470;47.324;8.548;2023-05-10T12:35:51;4.15;;;2.60;;
32810;SDS011;65470;47.324;8.548;2023-05-10T12:40:50;7.13;;;2.03;;
32810;SDS011;65470;47.324;8.548;2023-05-10T12:43:15;4.63;;;1.90;;
32810;SDS011;65470;47.324;8.548;2023-05-10T12:45:41;4.70;;;1.80;;
32810;SDS011;65470;47.324;8.548;2023-05-10T12:48:06;3.50;;;1.80;;
32810;SDS011;65470;47.324;8.548;2023-05-10T12:50:32;4.40;;;1.60;;
32810;SDS011;65470;47.324;8.548;2023-05-10T12:52:57;4.05;;;1.85;;
32810;SDS011;65470;47.324;8.548;2023-05-10T12:55:23;3.38;;;1.55;;
32810;SDS011;65470;47.324;8.548;2023-05-10T12:57:49;4.25;;;2.03;;
32810;SDS011;65470;47.324;8.548;2023-05-10T13:00:14;4.82;;;2.30;;
32810;SDS011;65470;47.324;8.548;2023-05-10T13:02:40;4.25;;;2.70;;
32810;SDS011;65470;47.324;8.548;2023-05-10T13:05:06;8.90;;;2.25;;
32810;SDS011;65470;47.324;8.548;2023-05-10T13:07:32;5.38;;;2.30;;
32810;SDS011;65470;47.324;8.548;2023-05-10T13:09:57;4.78;;;2.53;;
32810;SDS011;65470;47.324;8.548;2023-05-10T13:12:23;4.40;;;2.38;;
32810;SDS011;65470;47.324;8.548;2023-05-10T13:14:49;4.53;;;1.80;;
32810;SDS011;65470;47.324;8.548;2023-05-10T13:17:14;4.03;;;2.33;;
32810;SDS011;65470;47.324;8.548;2023-05-10T13:19:40;5.05;;;2.42;;
32810;SDS011;65470;47.324;8.548;2023-05-10T13:22:05;2.78;;;1.77;;
32810;SDS011;65470;47.324;8.548;2023-05-10T13:24:31;3.05;;;1.70;;
32810;SDS011;65470;47.324;8.548;2023-05-10T13:26:57;4.88;;;2.40;;
32810;SDS011;65470;47.324;8.548;2023-05-10T13:29:23;4.20;;;2.33;;
32810;SDS011;65470;47.324;8.548;2023-05-10T13:31:48;6.53;;;1.70;;
32810;SDS011;65470;47.324;8.548;2023-05-10T13:34:14;5.10;;;1.70;;
32810;SDS011;65470;47.324;8.548;2023-05-10T13:36:40;3.75;;;1.90;;
32810;SDS011;65470;47.324;8.548;2023-05-10T13:39:06;3.28;;;1.67;;
32810;SDS011;65470;47.324;8.548;2023-05-10T13:41:31;4.28;;;2.10;;
32810;SDS011;65470;47.324;8.548;2023-05-10T13:43:57;3.22;;;1.70;;
32810;SDS011;65470;47.324;8.548;2023-05-10T13:46:22;5.15;;;1.88;;
32810;SDS011;65470;47.324;8.548;2023-05-10T13:48:48;3.45;;;2.25;;
32810;SDS011;65470;47.324;8.548;2023-05-10T13:51:14;3.53;;;1.98;;
32810;SDS011;65470;47.324;8.548;2023-05-10T13:53:39;3.80;;;2.38;;
32810;SDS011;65470;47.324;8.548;2023-05-10T13:56:05;4.72;;;2.15;;
32810;SDS011;65470;47.324;8.548;2023-05-10T13:58:31;4.07;;;2.10;;
32810;SDS011;65470;47.324;8.548;2023-05-10T14:00:56;7.45;;;2.40;;
32810;SDS011;65470;47.324;8.548;2023-05-10T14:03:22;3.97;;;1.88;;
32810;SDS011;65470;47.324;8.548;2023-05-10T14:05:48;4.43;;;1.92;;
32810;SDS011;65470;47.324;8.548;2023-05-10T14:08:14;2.45;;;1.55;;
32810;SDS011;65470;47.324;8.548;2023-05-10T14:10:39;2.88;;;1.65;;
32810;SDS011;65470;47.324;8.548;2023-05-10T14:13:05;3.42;;;1.40;;
32810;SDS011;65470;47.324;8.548;2023-05-10T14:15:31;2.60;;;1.42;;
32810;SDS011;65470;47.324;8.548;2023-05-10T14:17:57;4.45;;;1.67;;
32810;SDS011;65470;47.324;8.548;2023-05-10T14:20:22;6.32;;;1.67;;
32810;SDS011;65470;47.324;8.548;2023-05-10T14:22:48;2.55;;;1.65;;
32810;SDS011;65470;47.324;8.548;2023-05-10T14:25:13;2.85;;;1.90;;
32810;SDS011;65470;47.324;8.548;2023-05-10T14:27:39;3.35;;;1.58;;
32810;SDS011;65470;47.324;8.548;2023-05-10T14:30:05;4.43;;;1.55;;
32810;SDS011;65470;47.324;8.548;2023-05-10T14:32:32;4.07;;;1.70;;
32810;SDS011;65470;47.324;8.548;2023-05-10T14:34:57;2.65;;;2.00;;
32810;SDS011;65470;47.324;8.548;2023-05-10T14:37:23;2.03;;;1.73;;
32810;SDS011;65470;47.324;8.548;2023-05-10T14:39:48;3.13;;;1.92;;
32810;SDS011;65470;47.324;8.548;2023-05-10T14:42:14;4.47;;;1.55;;
32810;SDS011;65470;47.324;8.548;2023-05-10T14:44:39;2.92;;;1.70;;
32810;SDS011;65470;47.324;8.548;2023-05-10T14:47:05;3.10;;;1.60;;
32810;SDS011;65470;47.324;8.548;2023-05-10T14:49:31;3.42;;;1.65;;
32810;SDS011;65470;47.324;8.548;2023-05-10T14:51:56;4.07;;;1.80;;
32810;SDS011;65470;47.324;8.548;2023-05-10T14:54:22;5.85;;;1.48;;
32810;SDS011;65470;47.324;8.548;2023-05-10T14:56:47;3.40;;;1.60;;
32810;SDS011;65470;47.324;8.548;2023-05-10T14:59:14;3.78;;;1.27;;
32810;SDS011;65470;47.324;8.548;2023-05-10T15:01:40;3.28;;;1.30;;
32810;SDS011;65470;47.324;8.548;2023-05-10T15:04:07;3.03;;;1.67;;
32810;SDS011;65470;47.324;8.548;2023-05-10T15:06:33;2.60;;;1.50;;
32810;SDS011;65470;47.324;8.548;2023-05-10T15:09:00;2.85;;;2.30;;
32810;SDS011;65470;47.324;8.548;2023-05-10T15:11:28;3.00;;;2.03;;
32810;SDS011;65470;47.324;8.548;2023-05-10T15:13:54;4.65;;;1.92;;
32810;SDS011;65470;47.324;8.548;2023-05-10T15:16:20;2.45;;;1.98;;
32810;SDS011;65470;47.324;8.548;2023-05-10T15:18:45;2.00;;;1.65;;
32810;SDS011;65470;47.324;8.548;2023-05-10T15:21:11;4.55;;;2.10;;
32810;SDS011;65470;47.324;8.548;2023-05-10T15:23:37;1.88;;;1.30;;
32810;SDS011;65470;47.324;8.548;2023-05-10T15:26:03;2.00;;;1.30;;
32810;SDS011;65470;47.324;8.548;2023-05-10T15:28:29;2.55;;;1.50;;
32810;SDS011;65470;47.324;8.548;2023-05-10T15:30:55;7.43;;;1.60;;
32810;SDS011;65470;47.324;8.548;2023-05-10T15:33:21;6.68;;;2.00;;
32810;SDS011;65470;47.324;8.548;2023-05-10T15:35:46;7.50;;;1.33;;
32810;SDS011;65470;47.324;8.548;2023-05-10T15:38:12;5.88;;;1.80;;
32810;SDS011;65470;47.324;8.548;2023-05-10T15:40:38;4.95;;;1.70;;
32810;SDS011;65470;47.324;8.548;2023-05-10T15:43:03;3.83;;;1.55;;